Time;durP1;ratioP1;P1;durP2;ratioP2;P2;SDS_P1;SDS_P2;PMS_P1;PMS_P2;Temp;Humidity;BMP_temperature;BMP_pressure;BME280_temperature;BME280_humidity;BME280_pressure;Samples;Min_cycle;Max_cycle;Signal;HPM_P1;HPM_P2
2022/01/28 00:01:19;;;;;;;19.13;7.47;;;2.40;99.90;;;;;;5046791;28;20056;-74
2022/01/28 00:03:46;;;;;;;22.52;7.13;;;2.40;99.90;;;;;;5046937;28;20401;-74
2022/01/28 00:06:15;;;;;;;19.13;7.78;;;2.30;99.90;;;;;;5037087;28;20057;-74
2022/01/28 00:08:43;;;;;;;24.23;7.82;;;2.20;99.90;;;;;;5027238;28;20052;-75
2022/01/28 00:11:11;;;;;;;19.88;8.15;;;2.30;99.90;;;;;;5027555;28;20053;-75
2022/01/28 00:13:42;;;;;;;26.60;7.85;;;2.20;99.90;;;;;;5029496;28;20065;-77
2022/01/28 00:39:49;;;;;;;22.08;7.35;;;2.10;99.90;;;;;;5034615;28;20047;-75
2022/01/28 00:42:17;;;;;;;21.67;7.60;;;2.10;99.90;;;;;;5027740;28;20072;-74
2022/01/28 00:44:45;;;;;;;;;;;2.10;99.90;;;;;;5030013;28;20046;-75
2022/01/28 00:47:12;;;;;;;20.73;6.43;;;2.00;99.90;;;;;;5045680;28;19925;-75
2022/01/28 00:49:40;;;;;;;30.23;6.70;;;2.00;99.90;;;;;;5050822;28;20052;-75
2022/01/28 00:52:08;;;;;;;25.50;7.80;;;2.00;99.90;;;;;;5049635;28;20678;-74
2022/01/28 00:54:36;;;;;;;23.58;7.93;;;2.00;99.90;;;;;;5048080;28;20405;-76
2022/01/28 00:57:04;;;;;;;20.90;6.93;;;2.00;99.90;;;;;;5033036;28;20060;-76
2022/01/28 00:59:31;;;;;;;17.35;6.80;;;2.00;99.90;;;;;;5028957;28;20080;-76
2022/01/28 01:01:59;;;;;;;32.03;7.72;;;2.00;99.90;;;;;;5028752;28;20068;-77
2022/01/28 01:04:27;;;;;;;23.17;7.30;;;1.90;99.90;;;;;;5046186;28;20072;-75
2022/01/28 01:06:55;;;;;;;26.98;7.50;;;1.90;99.90;;;;;;5033674;28;20517;-75
2022/01/28 01:09:23;;;;;;;21.05;6.95;;;1.90;99.90;;;;;;5027170;28;20056;-75
2022/01/28 01:11:50;;;;;;;23.55;7.15;;;1.90;99.90;;;;;;5041848;28;20050;-75
2022/01/28 01:14:18;;;;;;;25.75;7.18;;;1.90;99.90;;;;;;5028359;28;20832;-75
2022/01/28 01:17:06;;;;;;;32.15;7.55;;;1.80;99.90;;;;;;5035192;28;20057;-75
2022/01/28 01:19:39;;;;;;;16.83;6.53;;;1.80;99.90;;;;;;5043619;28;20045;-76
2022/01/28 01:22:09;;;;;;;21.15;6.88;;;1.80;99.90;;;;;;5042642;28;20413;-75
2022/01/28 01:24:47;;;;;;;26.05;7.18;;;1.80;99.90;;;;;;5027187;28;20052;-76
2022/01/28 01:27:17;;;;;;;27.83;7.68;;;1.80;99.90;;;;;;5041221;28;20056;-74
2022/01/28 01:29:46;;;;;;;32.28;8.70;;;1.80;99.90;;;;;;5047772;28;20607;-77
2022/01/28 01:32:17;;;;;;;36.63;10.68;;;1.80;99.90;;;;;;5049129;28;20464;-75
2022/01/28 01:34:47;;;;;;;24.75;8.90;;;1.90;99.90;;;;;;5048047;28;20400;-75
2022/01/28 01:37:14;;;;;;;30.98;8.18;;;1.90;99.90;;;;;;5039001;28;20041;-77
2022/01/28 01:39:42;;;;;;;40.70;9.90;;;2.00;99.90;;;;;;5048318;28;20059;-75
2022/01/28 01:42:20;;;;;;;;;;;2.20;99.90;;;;;;5063408;28;20485;-74
2022/01/28 01:52:52;;;;;;;30.55;6.82;;;2.80;99.90;;;;;;5041603;28;20056;-76
2022/01/28 01:55:20;;;;;;;22.05;5.95;;;2.90;99.90;;;;;;5026714;28;20045;-75
2022/01/28 01:57:48;;;;;;;;;;;2.90;99.90;;;;;;5027446;28;20767;-75
2022/01/28 02:00:16;;;;;;;22.13;5.47;;;3.00;99.90;;;;;;5025813;28;19921;-76
2022/01/28 02:02:48;;;;;;;16.63;5.15;;;3.00;99.90;;;;;;5034653;28;20363;-76
2022/01/28 02:05:16;;;;;;;26.70;5.22;;;3.00;99.90;;;;;;5063713;28;20811;-75
2022/01/28 02:07:45;;;;;;;20.17;4.63;;;3.10;99.90;;;;;;5030858;28;20057;-74
2022/01/28 02:10:14;;;;;;;20.92;5.28;;;3.00;99.90;;;;;;5034792;28;20404;-76
2022/01/28 02:12:46;;;;;;;20.85;5.15;;;2.90;99.90;;;;;;5046386;28;20057;-76
2022/01/28 02:15:14;;;;;;;20.48;4.88;;;2.80;99.90;;;;;;5048455;28;20053;-75
2022/01/28 02:17:42;;;;;;;14.77;4.22;;;2.90;99.90;;;;;;5046999;28;20045;-74
2022/01/28 02:20:26;;;;;;;20.60;5.05;;;2.90;99.90;;;;;;5043950;28;20466;-76
2022/01/28 02:22:54;;;;;;;19.65;4.80;;;2.80;99.90;;;;;;5029609;28;20045;-73
2022/01/28 02:25:28;;;;;;;19.25;4.30;;;2.80;99.90;;;;;;5027768;28;20052;-74
2022/01/28 02:28:01;;;;;;;22.80;4.47;;;2.70;99.90;;;;;;5041563;28;20038;-74
2022/01/28 02:30:30;;;;;;;18.52;4.15;;;2.70;99.90;;;;;;5026866;28;20049;-75
2022/01/28 02:33:21;;;;;;;19.38;4.30;;;2.60;99.90;;;;;;5040580;28;20405;-74
2022/01/28 02:35:47;;;;;;;28.63;5.25;;;2.50;99.90;;;;;;5046042;28;20481;-76
2022/01/28 02:38:16;;;;;;;19.13;4.60;;;2.50;99.90;;;;;;5046407;28;20481;-74
2022/01/28 02:40:49;;;;;;;25.48;5.75;;;2.40;99.90;;;;;;5044536;28;20052;-75
2022/01/28 02:45:54;;;;;;;17.85;5.80;;;2.30;99.90;;;;;;5045105;28;20128;-75
2022/01/28 02:48:26;;;;;;;23.73;6.07;;;2.30;99.90;;;;;;5046229;28;20497;-74
2022/01/28 02:53:42;;;;;;;22.27;6.57;;;2.20;99.90;;;;;;5047095;28;20045;-74
2022/01/28 02:56:24;;;;;;;28.20;8.50;;;2.10;99.90;;;;;;5045369;28;20049;-75
2022/01/28 02:58:51;;;;;;;36.38;9.07;;;2.00;99.90;;;;;;5044520;28;20060;-76
2022/01/28 03:01:19;;;;;;;26.90;7.55;;;2.00;99.90;;;;;;5028751;28;20060;-73
2022/01/28 03:03:49;;;;;;;33.97;7.65;;;2.00;99.90;;;;;;5045713;28;20372;-74
2022/01/28 03:06:19;;;;;;;28.38;8.52;;;2.00;99.90;;;;;;5046938;28;20288;-76
2022/01/28 03:09:02;;;;;;;22.00;7.75;;;2.00;99.90;;;;;;5046962;28;20418;-75
2022/01/28 03:11:42;;;;;;;22.35;7.75;;;1.90;99.90;;;;;;5064189;28;20373;-75
2022/01/28 03:19:23;;;;;;;28.98;11.55;;;1.80;99.90;;;;;;5028215;28;20057;-74
2022/01/28 03:21:55;;;;;;;30.48;10.38;;;1.80;99.90;;;;;;5030859;28;20046;-76
2022/01/28 03:24:27;;;;;;;30.20;10.07;;;1.80;99.90;;;;;;5030367;28;20493;-74
2022/01/28 03:27:04;;;;;;;29.45;6.55;;;1.70;99.90;;;;;;5036943;28;20045;-74
2022/01/28 03:29:32;;;;;;;25.92;7.30;;;1.70;99.90;;;;;;5043169;28;20061;-76
2022/01/28 03:31:59;;;;;;;26.70;6.35;;;1.70;99.90;;;;;;5048363;28;20048;-73
2022/01/28 03:34:27;;;;;;;32.22;9.48;;;1.60;99.90;;;;;;5049617;28;20095;-74
2022/01/28 03:36:56;;;;;;;29.52;8.52;;;1.60;99.90;;;;;;5047914;28;20562;-75
2022/01/28 03:39:24;;;;;;;27.02;8.00;;;1.60;99.90;;;;;;5048304;28;20060;-74
2022/01/28 03:41:51;;;;;;;34.67;6.57;;;1.60;99.90;;;;;;5031627;28;20064;-74
2022/01/28 03:44:19;;;;;;;24.13;6.70;;;1.60;99.90;;;;;;5048714;28;20053;-75
2022/01/28 03:46:47;;;;;;;23.77;5.82;;;1.60;99.90;;;;;;5042389;28;20494;-76
2022/01/28 03:49:15;;;;;;;;;;;1.60;99.90;;;;;;5029943;28;20041;-74
2022/01/28 03:51:42;;;;;;;19.15;5.85;;;1.60;99.90;;;;;;5029767;28;19936;-75
2022/01/28 03:54:10;;;;;;;24.52;5.63;;;1.60;99.90;;;;;;5044683;28;20057;-76
2022/01/28 03:56:38;;;;;;;20.83;5.63;;;1.50;99.90;;;;;;5032737;28;20052;-75
2022/01/28 03:59:05;;;;;;;27.27;6.60;;;1.60;99.90;;;;;;5050335;28;20064;-76
2022/01/28 04:01:37;;;;;;;26.65;5.85;;;1.60;99.90;;;;;;5030210;28;20687;-76
2022/01/28 04:12:40;;;;;;;22.13;6.65;;;1.90;99.90;;;;;;5050471;28;20059;-75
2022/01/28 04:17:36;;;;;;;28.40;6.25;;;1.90;99.90;;;;;;5061618;28;20363;-74
2022/01/28 04:20:04;;;;;;;19.90;5.75;;;2.00;99.90;;;;;;5047815;28;20059;-76
2022/01/28 04:22:32;;;;;;;;;;;2.00;99.90;;;;;;5047259;28;20414;-76
2022/01/28 04:24:59;;;;;;;23.23;5.55;;;2.10;99.90;;;;;;5047588;28;19925;-76
2022/01/28 04:27:27;;;;;;;19.40;5.03;;;2.10;99.90;;;;;;5047279;28;20061;-75
2022/01/28 04:29:55;;;;;;;31.25;5.72;;;2.10;99.90;;;;;;5048862;28;20056;-77
2022/01/28 04:32:25;;;;;;;24.40;6.18;;;2.10;99.90;;;;;;5048743;28;20417;-77
2022/01/28 04:34:54;;;;;;;22.17;5.60;;;2.10;99.90;;;;;;5049261;28;20148;-76
2022/01/28 04:37:45;;;;;;;18.25;5.40;;;2.10;99.90;;;;;;5049342;28;20497;-74
2022/01/28 04:40:24;;;;;;;23.58;6.30;;;2.10;99.90;;;;;;5050831;28;20501;-76
2022/01/28 04:53:04;;;;;;;16.10;5.50;;;1.90;99.90;;;;;;5048043;28;20060;-75
2022/01/28 05:06:38;;;;;;;15.60;5.70;;;1.70;99.90;;;;;;5048128;28;20040;-73
2022/01/28 05:27:22;;;;;;;;;;;1.60;99.90;;;;;;5038536;28;20053;-75
2022/01/28 05:29:50;;;;;;;18.17;4.90;;;1.50;99.90;;;;;;5027688;28;20273;-75
2022/01/28 05:32:17;;;;;;;19.38;4.65;;;1.50;99.90;;;;;;5030324;28;20052;-76
2022/01/28 05:34:47;;;;;;;17.08;5.03;;;1.50;99.90;;;;;;5047196;28;20060;-75
2022/01/28 05:37:14;;;;;;;23.85;4.90;;;1.50;99.90;;;;;;5047697;28;20052;-74
2022/01/28 05:39:42;;;;;;;21.27;5.85;;;1.50;99.90;;;;;;5046446;28;20053;-77
2022/01/28 05:42:10;;;;;;;18.17;5.93;;;1.50;99.90;;;;;;5048529;28;20060;-77
2022/01/28 05:44:38;;;;;;;21.25;5.57;;;1.50;99.90;;;;;;5050074;28;20049;-76
2022/01/28 05:47:06;;;;;;;21.50;5.47;;;1.40;99.90;;;;;;5050192;28;20045;-77
2022/01/28 05:49:35;;;;;;;20.30;5.35;;;1.50;99.90;;;;;;5051814;28;20060;-74
2022/01/28 05:52:03;;;;;;;18.33;5.15;;;1.50;99.90;;;;;;5061729;28;20056;-74
2022/01/28 05:54:31;;;;;;;15.90;5.22;;;1.40;99.90;;;;;;5060789;28;20052;-78
2022/01/28 05:56:59;;;;;;;17.80;5.88;;;1.40;99.90;;;;;;5033253;28;20057;-73
2022/01/28 05:59:26;;;;;;;18.60;5.25;;;1.40;99.90;;;;;;5045746;28;20056;-73
2022/01/28 06:01:54;;;;;;;17.30;5.43;;;1.40;99.90;;;;;;5044066;28;20056;-73
2022/01/28 06:04:21;;;;;;;16.08;5.45;;;1.40;99.90;;;;;;5045846;28;20041;-74
2022/01/28 06:06:49;;;;;;;28.52;6.07;;;1.40;99.90;;;;;;5043951;28;20072;-75
2022/01/28 06:09:17;;;;;;;20.52;5.40;;;1.30;99.90;;;;;;5027789;28;20048;-73
2022/01/28 06:11:46;;;;;;;20.70;5.28;;;1.30;99.90;;;;;;5045995;28;20076;-73
2022/01/28 06:14:14;;;;;;;21.20;5.18;;;1.30;99.90;;;;;;5044829;28;20041;-73
2022/01/28 06:16:42;;;;;;;20.58;5.63;;;1.30;99.90;;;;;;5043647;28;20048;-76
2022/01/28 06:19:09;;;;;;;;;;;1.30;99.90;;;;;;5043950;28;20057;-74
2022/01/28 06:21:37;;;;;;;17.08;5.32;;;1.30;99.90;;;;;;5044322;28;19924;-74
2022/01/28 06:24:05;;;;;;;19.83;5.78;;;1.30;99.90;;;;;;5045286;28;20641;-74
2022/01/28 06:26:33;;;;;;;20.00;6.00;;;1.30;99.90;;;;;;5043969;28;20060;-74
2022/01/28 06:29:00;;;;;;;23.48;5.63;;;1.30;99.90;;;;;;5025654;28;20068;-73
2022/01/28 06:31:28;;;;;;;22.52;7.32;;;1.30;99.90;;;;;;5025474;28;20060;-73
2022/01/28 06:33:56;;;;;;;19.13;5.35;;;1.30;99.90;;;;;;5039914;28;20049;-74
2022/01/28 06:36:23;;;;;;;16.38;6.07;;;1.30;99.90;;;;;;5043945;28;20068;-73
2022/01/28 06:38:51;;;;;;;17.60;6.00;;;1.30;99.90;;;;;;5044542;28;20041;-73
2022/01/28 06:41:18;;;;;;;22.55;5.63;;;1.30;99.90;;;;;;5043814;28;20056;-76
2022/01/28 06:43:46;;;;;;;21.60;5.97;;;1.30;99.90;;;;;;5044117;28;20049;-74
2022/01/28 06:46:14;;;;;;;17.55;6.05;;;1.30;99.90;;;;;;5044569;28;20053;-74
2022/01/28 06:48:42;;;;;;;21.95;6.75;;;1.30;99.90;;;;;;5045068;28;20111;-75
2022/01/28 06:51:10;;;;;;;16.80;6.45;;;1.30;99.90;;;;;;5028998;28;20078;-74
2022/01/28 06:53:37;;;;;;;16.45;5.88;;;1.30;99.90;;;;;;5044317;28;20053;-75
2022/01/28 06:56:05;;;;;;;18.52;6.25;;;1.30;99.90;;;;;;5044227;28;20045;-74
2022/01/28 06:58:33;;;;;;;14.43;6.35;;;1.30;99.90;;;;;;5029506;28;20409;-76
2022/01/28 07:01:00;;;;;;;29.58;7.22;;;1.30;99.90;;;;;;5025539;28;20648;-73
2022/01/28 07:03:28;;;;;;;18.15;6.65;;;1.30;99.90;;;;;;5036881;28;20394;-74
2022/01/28 07:05:56;;;;;;;28.70;7.47;;;1.30;99.90;;;;;;5043815;28;20040;-74
2022/01/28 07:08:27;;;;;;;20.60;6.70;;;1.30;99.90;;;;;;5037167;28;20618;-75
2022/01/28 07:10:54;;;;;;;18.95;6.93;;;1.30;99.90;;;;;;5045504;28;20437;-74
2022/01/28 07:13:22;;;;;;;23.52;7.93;;;1.30;99.90;;;;;;5045936;28;20060;-74
2022/01/28 07:15:52;;;;;;;23.85;6.93;;;1.30;99.90;;;;;;5045319;28;20044;-75
2022/01/28 07:18:20;;;;;;;23.88;6.57;;;1.30;99.90;;;;;;5045312;28;20075;-74
2022/01/28 07:20:47;;;;;;;23.50;7.25;;;1.30;99.90;;;;;;5044770;28;20045;-74
2022/01/28 07:23:15;;;;;;;20.77;6.75;;;1.30;99.90;;;;;;5038220;28;20045;-73
2022/01/28 07:25:43;;;;;;;21.30;6.40;;;1.30;99.90;;;;;;5045594;28;20049;-74
2022/01/28 07:28:11;;;;;;;23.45;6.30;;;1.30;99.90;;;;;;5045189;28;20053;-74
2022/01/28 07:30:39;;;;;;;18.10;5.95;;;1.30;99.90;;;;;;5036581;28;20041;-75
2022/01/28 07:33:09;;;;;;;20.63;6.65;;;1.30;99.90;;;;;;5038727;28;20051;-74
2022/01/28 07:35:37;;;;;;;24.77;6.22;;;1.30;99.90;;;;;;5043623;28;20512;-76
2022/01/28 07:38:05;;;;;;;16.52;6.22;;;1.30;99.90;;;;;;5042639;28;20100;-75
2022/01/28 07:40:33;;;;;;;24.23;6.65;;;1.30;99.90;;;;;;5045730;28;20041;-75
2022/01/28 07:43:00;;;;;;;17.17;6.80;;;1.30;99.90;;;;;;5044054;28;20390;-75
2022/01/28 07:45:28;;;;;;;24.98;7.70;;;1.30;99.90;;;;;;5030468;28;20045;-74
2022/01/28 07:47:56;;;;;;;24.65;7.78;;;1.30;99.90;;;;;;5042757;28;20044;-73
2022/01/28 07:50:24;;;;;;;25.73;7.40;;;1.40;99.90;;;;;;5044497;28;20044;-74
2022/01/28 07:52:52;;;;;;;16.67;6.82;;;1.40;99.90;;;;;;5044523;28;20049;-74
2022/01/28 07:55:20;;;;;;;29.05;7.22;;;1.40;99.90;;;;;;5042256;28;20053;-73
2022/01/28 07:57:50;;;;;;;25.38;7.78;;;1.50;99.90;;;;;;5041860;28;20049;-75
2022/01/28 08:00:18;;;;;;;24.08;8.35;;;1.50;99.90;;;;;;5041072;28;20056;-75
2022/01/28 08:02:45;;;;;;;22.23;7.75;;;1.60;99.90;;;;;;5029762;28;20045;-76
2022/01/28 08:05:14;;;;;;;22.05;7.00;;;1.60;99.90;;;;;;5042943;28;20067;-74
2022/01/28 08:07:42;;;;;;;22.85;6.78;;;1.80;99.90;;;;;;5042968;28;20042;-75
2022/01/28 08:10:11;;;;;;;23.48;6.57;;;1.80;99.90;;;;;;5042551;28;20045;-76
2022/01/28 08:12:50;;;;;;;22.63;7.07;;;1.80;99.90;;;;;;5050474;28;20048;-74
2022/01/28 08:15:19;;;;;;;21.35;6.85;;;1.90;99.90;;;;;;5038904;28;20405;-75
2022/01/28 08:17:47;;;;;;;23.17;6.10;;;1.90;99.90;;;;;;5030508;28;20045;-75
2022/01/28 08:20:15;;;;;;;17.40;5.63;;;2.00;99.90;;;;;;5055220;28;20460;-73
2022/01/28 08:22:47;;;;;;;19.40;5.72;;;2.00;99.90;;;;;;5043875;28;20052;-75
2022/01/28 08:25:17;;;;;;;16.48;5.22;;;2.10;99.90;;;;;;5049180;28;20055;-73
2022/01/28 08:27:46;;;;;;;20.10;5.70;;;2.20;99.90;;;;;;5050810;28;20040;-74
2022/01/28 08:30:16;;;;;;;17.45;6.30;;;2.20;99.90;;;;;;5045916;28;20056;-76
2022/01/28 08:32:44;;;;;;;14.77;5.75;;;2.30;99.90;;;;;;5030473;28;20398;-74
2022/01/28 08:35:14;;;;;;;20.33;5.50;;;2.30;99.90;;;;;;5044618;28;20140;-74
2022/01/28 08:37:43;;;;;;;21.90;5.57;;;2.40;99.90;;;;;;5028104;28;20080;-74
2022/01/28 08:40:12;;;;;;;17.23;5.30;;;2.50;99.90;;;;;;5044177;28;20176;-75
2022/01/28 08:42:40;;;;;;;22.63;5.38;;;2.50;99.90;;;;;;5027493;28;20481;-74
2022/01/28 08:45:08;;;;;;;16.83;5.20;;;2.60;99.90;;;;;;5028454;28;20053;-74
2022/01/28 08:47:36;;;;;;;17.90;5.40;;;2.60;99.90;;;;;;5034382;28;20056;-76
2022/01/28 08:50:04;;;;;;;20.60;5.28;;;2.70;99.90;;;;;;5025173;28;20052;-75
2022/01/28 08:52:32;;;;;;;20.83;5.90;;;2.80;99.90;;;;;;5028090;28;20049;-75
2022/01/28 08:55:01;;;;;;;15.68;5.82;;;2.90;99.90;;;;;;5026978;28;20049;-77
2022/01/28 08:57:28;;;;;;;;;;;2.90;99.90;;;;;;5047987;28;20064;-78
2022/01/28 08:59:57;;;;;;;17.33;5.53;;;3.00;99.90;;;;;;5023429;28;19924;-79
2022/01/28 09:02:25;;;;;;;;;;;3.10;99.90;;;;;;5035883;28;20049;-81
2022/01/28 09:04:52;;;;;;;;;;;3.20;99.90;;;;;;5045915;28;19925;-80
2022/01/28 09:07:20;;;;;;;18.70;5.70;;;3.20;99.90;;;;;;5033374;28;19921;-76
2022/01/28 09:09:51;;;;;;;15.75;5.05;;;3.20;99.90;;;;;;5040565;28;20056;-81
2022/01/28 09:15:07;;;;;;;15.07;4.57;;;3.20;99.90;;;;;;5050002;28;20053;-78
2022/01/28 09:17:54;;;;;;;16.05;5.00;;;3.40;99.90;;;;;;5028388;28;20102;-76
2022/01/28 09:20:31;;;;;;;13.90;5.32;;;3.40;99.90;;;;;;5028536;28;20076;-76
2022/01/28 09:23:00;;;;;;;15.20;5.53;;;3.50;99.90;;;;;;5047138;28;20040;-77
2022/01/28 09:25:28;;;;;;;16.23;5.55;;;3.70;99.90;;;;;;5042870;28;20053;-76
2022/01/28 09:27:57;;;;;;;14.48;5.10;;;3.70;99.90;;;;;;5057221;28;20053;-75
2022/01/28 09:30:25;;;;;;;15.90;5.13;;;3.70;99.90;;;;;;5029413;28;20138;-76
2022/01/28 09:32:53;;;;;;;;;;;3.80;99.90;;;;;;5046438;28;20037;-76
2022/01/28 09:35:20;;;;;;;17.27;5.20;;;3.90;99.90;;;;;;5047765;28;20028;-76
2022/01/28 09:37:50;;;;;;;13.40;5.03;;;4.00;99.90;;;;;;5036090;28;20049;-76
2022/01/28 09:40:18;;;;;;;20.70;4.90;;;4.10;99.90;;;;;;5045037;28;20055;-76
2022/01/28 09:42:47;;;;;;;17.65;5.10;;;4.30;99.90;;;;;;5041150;28;20052;-75
2022/01/28 09:45:17;;;;;;;20.20;6.32;;;4.40;99.90;;;;;;5043868;28;20440;-75
2022/01/28 09:47:51;;;;;;;15.60;5.82;;;4.50;99.90;;;;;;5038202;28;20064;-76
2022/01/28 09:50:23;;;;;;;20.23;6.53;;;4.80;99.90;;;;;;5042774;28;20528;-77
2022/01/28 09:52:52;;;;;;;24.70;6.35;;;5.00;99.90;;;;;;5046112;28;20048;-75
2022/01/28 09:55:22;;;;;;;16.38;6.20;;;5.10;99.90;;;;;;5033918;28;20056;-75
2022/01/28 09:57:53;;;;;;;14.23;5.50;;;5.30;99.90;;;;;;5043903;28;20471;-75
2022/01/28 10:00:24;;;;;;;17.45;3.55;;;5.50;99.90;;;;;;5046755;28;20060;-75
2022/01/28 10:02:59;;;;;;;14.95;3.90;;;5.60;99.90;;;;;;5025084;28;20068;-75
2022/01/28 10:05:31;;;;;;;12.25;3.30;;;5.80;99.90;;;;;;5047047;28;20049;-75
2022/01/28 10:08:06;;;;;;;16.80;3.60;;;6.00;99.90;;;;;;5046769;28;20408;-75
2022/01/28 10:10:59;;;;;;;9.30;3.10;;;6.10;99.90;;;;;;5046118;28;20057;-76
2022/01/28 10:13:33;;;;;;;13.65;3.15;;;6.30;99.90;;;;;;5045829;28;20059;-75
2022/01/28 10:16:04;;;;;;;10.18;3.40;;;6.50;99.90;;;;;;5029354;28;20048;-75
2022/01/28 10:18:37;;;;;;;16.83;3.13;;;6.60;99.90;;;;;;5027332;28;20064;-75
2022/01/28 10:21:14;;;;;;;14.00;3.20;;;6.70;99.90;;;;;;5030090;28;20053;-74
2022/01/28 10:23:42;;;;;;;13.55;3.03;;;6.90;99.90;;;;;;5047941;28;20045;-73
2022/01/28 10:26:09;;;;;;;13.15;2.85;;;6.90;99.90;;;;;;5037116;28;20049;-73
2022/01/28 10:28:50;;;;;;;14.63;3.08;;;7.00;99.90;;;;;;5029343;28;20049;-76
2022/01/28 10:31:18;;;;;;;12.68;3.45;;;7.10;99.90;;;;;;5036747;28;20053;-74
2022/01/28 10:33:46;;;;;;;;;;;7.20;99.90;;;;;;5047623;28;20060;-76
2022/01/28 10:36:24;;;;;;;13.25;2.97;;;7.30;99.90;;;;;;5046602;28;19932;-73
2022/01/28 10:38:57;;;;;;;12.20;3.17;;;7.40;99.90;;;;;;5045887;28;20056;-73
2022/01/28 10:41:25;;;;;;;10.93;2.80;;;7.50;99.90;;;;;;5044312;28;20053;-76
2022/01/28 10:43:56;;;;;;;15.98;2.85;;;7.50;99.90;;;;;;5048524;28;20049;-73
2022/01/28 10:46:29;;;;;;;10.02;2.60;;;7.50;99.90;;;;;;5047524;28;20041;-73
2022/01/28 10:49:01;;;;;;;9.60;2.80;;;7.60;99.90;;;;;;5046596;28;20067;-77
2022/01/28 10:51:42;;;;;;;13.20;2.88;;;7.70;99.90;;;;;;5033115;28;20060;-76
2022/01/28 10:54:22;;;;;;;10.70;2.90;;;7.70;99.90;;;;;;5046698;28;20052;-74
2022/01/28 10:56:57;;;;;;;12.23;3.05;;;7.80;99.90;;;;;;5044975;28;20052;-76
2022/01/28 10:59:33;;;;;;;13.52;3.00;;;7.90;99.90;;;;;;5045124;28;20053;-77
2022/01/28 11:02:06;;;;;;;15.10;2.80;;;8.00;99.90;;;;;;5041748;28;20049;-86
2022/01/28 11:04:47;;;;;;;15.77;2.85;;;8.10;99.90;;;;;;5023842;28;20497;-76
2022/01/28 11:07:15;;;;;;;10.63;2.85;;;8.20;99.90;;;;;;5040849;28;20048;-77
2022/01/28 11:09:42;;;;;;;9.77;2.38;;;8.40;99.90;;;;;;5035950;28;20057;-79
2022/01/28 11:12:11;;;;;;;11.70;2.30;;;8.70;99.90;;;;;;5035641;28;20450;-75
2022/01/28 11:14:39;;;;;;;8.60;2.20;;;9.00;99.90;;;;;;5046574;28;20053;-75
2022/01/28 11:17:10;;;;;;;14.38;2.50;;;9.40;99.90;;;;;;5046331;28;20052;-76
2022/01/28 11:19:40;;;;;;;14.57;2.83;;;9.70;99.90;;;;;;5040739;28;20059;-78
2022/01/28 11:22:23;;;;;;;9.98;2.60;;;10.00;99.90;;;;;;5042624;28;20052;-76
2022/01/28 11:25:00;;;;;;;10.10;2.65;;;10.50;99.90;;;;;;5021986;28;20045;-75
2022/01/28 11:27:34;;;;;;;8.77;2.47;;;10.80;99.90;;;;;;5008236;28;20061;-76
2022/01/28 11:30:28;;;;;;;7.57;2.00;;;11.10;99.90;;;;;;5041880;28;20586;-76
2022/01/28 11:33:02;;;;;;;11.85;2.55;;;11.30;99.90;;;;;;5046443;28;20041;-76
2022/01/28 11:35:37;;;;;;;8.77;2.40;;;11.30;99.90;;;;;;5045468;28;20049;-76
2022/01/28 11:38:24;;;;;;;9.77;2.33;;;11.40;99.90;;;;;;5010655;28;20076;-75
2022/01/28 11:40:57;;;;;;;9.32;2.50;;;11.40;99.90;;;;;;5046405;28;20045;-74
2022/01/28 11:43:29;;;;;;;9.02;2.83;;;11.60;99.90;;;;;;5045684;28;20043;-76
2022/01/28 11:46:15;;;;;;;9.52;2.28;;;11.80;99.90;;;;;;5047610;28;20067;-75
2022/01/28 11:48:52;;;;;;;7.35;2.40;;;12.00;99.90;;;;;;5043592;28;20041;-75
2022/01/28 11:51:36;;;;;;;10.95;2.55;;;12.10;99.90;;;;;;5046884;28;20052;-75
2022/01/28 11:54:07;;;;;;;10.18;2.70;;;12.10;99.90;;;;;;5029362;28;20056;-75
2022/01/28 11:57:12;;;;;;;11.00;2.63;;;12.20;99.90;;;;;;5046322;28;20049;-74
2022/01/28 11:59:40;;;;;;;9.55;2.60;;;12.40;99.90;;;;;;5012739;28;20512;-75
2022/01/28 12:02:10;;;;;;;7.40;2.03;;;12.50;99.90;;;;;;5041829;28;20409;-75
2022/01/28 12:04:40;;;;;;;9.05;2.20;;;12.50;99.90;;;;;;5027253;28;20523;-76
2022/01/28 12:07:21;;;;;;;9.23;2.50;;;12.50;99.90;;;;;;5046077;28;20057;-76
2022/01/28 12:09:52;;;;;;;7.97;2.42;;;12.40;99.90;;;;;;5046237;28;20080;-75
2022/01/28 12:12:42;;;;;;;9.48;2.95;;;12.30;99.90;;;;;;5036075;28;20052;-75
2022/01/28 12:15:15;;;;;;;12.13;3.00;;;12.30;99.90;;;;;;5046716;28;20053;-75
2022/01/28 12:17:50;;;;;;;9.77;3.30;;;12.20;99.90;;;;;;5048662;28;20048;-77
2022/01/28 12:20:45;;;;;;;13.80;5.68;;;12.10;99.90;;;;;;5044555;28;20049;-78
2022/01/28 12:23:13;;;;;;;22.70;8.27;;;12.00;99.90;;;;;;5041242;28;20512;-78
2022/01/28 12:25:40;;;;;;;16.42;6.18;;;11.90;99.90;;;;;;5060564;28;20053;-77
2022/01/28 12:28:15;;;;;;;16.10;6.60;;;11.90;99.90;;;;;;5029623;28;20064;-78
2022/01/28 12:30:48;;;;;;;14.82;4.38;;;11.90;99.90;;;;;;5047423;28;20053;-78
2022/01/28 12:33:21;;;;;;;9.65;3.72;;;11.80;99.90;;;;;;5047399;28;20036;-79
2022/01/28 12:35:52;;;;;;;8.63;3.97;;;11.70;99.90;;;;;;5048582;28;20053;-77
2022/01/28 12:38:23;;;;;;;9.43;4.03;;;11.70;99.90;;;;;;5047727;28;20048;-77
2022/01/28 12:40:53;;;;;;;10.50;3.60;;;11.70;99.90;;;;;;5047302;28;20040;-78
2022/01/28 12:43:24;;;;;;;10.13;3.50;;;11.70;99.90;;;;;;5046792;28;20041;-77
2022/01/28 12:46:17;;;;;;;11.73;3.70;;;11.60;99.90;;;;;;5048802;28;20053;-77
2022/01/28 12:49:03;;;;;;;11.82;4.00;;;11.50;99.90;;;;;;5044275;28;20052;-78
2022/01/28 12:51:37;;;;;;;8.82;2.00;;;11.50;99.90;;;;;;5039421;28;20037;-77
2022/01/28 12:54:06;;;;;;;9.02;2.00;;;11.40;99.90;;;;;;5043520;28;20041;-78
2022/01/28 12:56:40;;;;;;;;;;;11.30;99.90;;;;;;5046434;28;20053;-77
2022/01/28 12:59:10;;;;;;;6.72;1.98;;;11.30;99.90;;;;;;5046334;28;19924;-76
2022/01/28 13:01:38;;;;;;;9.57;1.98;;;11.30;99.90;;;;;;5047349;28;20539;-76
2022/01/28 13:04:12;;;;;;;4.72;1.70;;;11.30;99.90;;;;;;5047397;28;20074;-77
2022/01/28 13:06:59;;;;;;;7.38;1.70;;;11.40;99.90;;;;;;5044056;28;20048;-77
2022/01/28 13:09:32;;;;;;;5.88;1.77;;;11.40;99.90;;;;;;5043602;28;20049;-76
2022/01/28 13:12:02;;;;;;;10.20;1.90;;;11.30;99.90;;;;;;5047566;28;20049;-76
2022/01/28 13:14:33;;;;;;;7.43;1.80;;;11.30;99.90;;;;;;5045893;28;20374;-77
2022/01/28 13:17:08;;;;;;;9.27;2.88;;;11.30;99.90;;;;;;5048883;28;20064;-76
2022/01/28 13:19:35;;;;;;;15.32;4.30;;;11.40;99.90;;;;;;5045378;28;20049;-77
2022/01/28 13:22:05;;;;;;;16.38;4.00;;;11.50;99.90;;;;;;5047767;28;20064;-77
2022/01/28 13:24:32;;;;;;;9.88;3.10;;;11.50;99.90;;;;;;5029421;28;20048;-77
2022/01/28 13:27:08;;;;;;;9.85;2.58;;;11.50;99.90;;;;;;5045081;28;20040;-78
2022/01/28 13:29:49;;;;;;;6.65;1.95;;;11.50;99.90;;;;;;5042563;28;20045;-77
2022/01/28 13:32:28;;;;;;;6.72;1.95;;;11.60;99.90;;;;;;5047366;28;20595;-76
2022/01/28 13:35:01;;;;;;;6.97;1.95;;;11.60;99.90;;;;;;5056819;28;20053;-78
2022/01/28 13:37:42;;;;;;;;;;;11.60;99.90;;;;;;5042531;28;20489;-77
2022/01/28 13:40:19;;;;;;;11.95;2.00;;;11.60;99.90;;;;;;5045120;28;19931;-76
2022/01/28 13:43:01;;;;;;;11.25;2.17;;;11.50;99.90;;;;;;5049070;28;20055;-76
2022/01/28 13:45:30;;;;;;;13.10;3.10;;;11.40;99.90;;;;;;5044843;28;20056;-76
2022/01/28 13:47:59;;;;;;;14.43;4.00;;;11.40;99.90;;;;;;5044130;28;20048;-78
2022/01/28 13:50:33;;;;;;;9.73;3.47;;;11.40;99.90;;;;;;5042260;28;20052;-76
2022/01/28 13:54:15;;;;;;;14.23;4.90;;;11.40;99.90;;;;;;5043589;28;20064;-77
2022/01/28 13:55:59;;;;;;;19.98;7.88;;;11.60;99.90;;;;;;5039741;28;20054;-76
2022/01/28 13:58:29;;;;;;;20.88;7.93;;;11.70;99.90;;;;;;5046184;28;20049;-76
2022/01/28 14:00:56;;;;;;;22.10;9.65;;;11.80;99.90;;;;;;5046002;28;20537;-77
2022/01/28 14:03:28;;;;;;;19.58;6.22;;;11.80;99.90;;;;;;5026587;28;20052;-77
2022/01/28 14:05:58;;;;;;;19.15;6.85;;;12.00;99.90;;;;;;5042809;28;20402;-78
2022/01/28 14:08:54;;;;;;;16.75;5.45;;;12.20;99.90;;;;;;5044307;28;20037;-78
2022/01/28 14:11:30;;;;;;;14.68;4.38;;;12.50;99.90;;;;;;5045251;28;20485;-79
2022/01/28 14:14:33;;;;;;;9.23;3.65;;;12.80;99.90;;;;;;5042948;28;20051;-80
2022/01/28 14:17:07;;;;;;;13.20;4.50;;;12.90;99.90;;;;;;5040719;28;20044;-77
2022/01/28 14:19:36;;;;;;;15.40;5.70;;;12.80;99.90;;;;;;5033742;28;20049;-79
2022/01/28 14:22:12;;;;;;;15.38;5.93;;;12.70;99.90;;;;;;5044434;28;20374;-76
2022/01/28 14:24:57;;;;;;;13.85;5.75;;;12.70;99.90;;;;;;5035233;28;20045;-79
2022/01/28 14:30:04;;;;;;;9.82;4.07;;;12.40;99.90;;;;;;5042201;28;20056;-79
2022/01/28 14:32:34;;;;;;;13.07;4.55;;;12.30;99.90;;;;;;5040136;28;20036;-77
2022/01/28 14:35:05;;;;;;;13.43;3.80;;;12.20;99.90;;;;;;5039946;28;20040;-84
2022/01/28 14:37:37;;;;;;;10.70;3.53;;;12.20;99.90;;;;;;5036066;28;20473;-81
2022/01/28 14:40:07;;;;;;;11.05;3.13;;;12.20;99.90;;;;;;5058843;28;20056;-79
2022/01/28 14:42:36;;;;;;;13.10;3.28;;;12.20;99.90;;;;;;5039630;28;20406;-80
2022/01/28 14:45:05;;;;;;;8.70;3.10;;;12.40;99.90;;;;;;5053030;28;20658;-78
2022/01/28 14:47:33;;;;;;;15.23;3.55;;;12.60;99.90;;;;;;5043903;28;20409;-77
2022/01/28 14:50:02;;;;;;;12.43;3.63;;;12.50;99.90;;;;;;5043368;28;20041;-78